This is the latest recevied weather packets stored in our database for station/object VE2JOS. If no packets are shown the sender has not sent any weather packets the latest 10 day(s).
| Time | Temp. | Humidity | Pressure | Rain* | Wind** | Luminosity | Snow |
|---|---|---|---|---|---|---|---|
| 1777879520 | 6.11° C | 71% | - | 0 mm | - | - | - |
| 1777877121 | 6.11° C | 70% | - | 0 mm | - | - | - |
| 1777876520 | 6.11° C | 70% | - | 0 mm | - | - | - |
| 1777872320 | 5.56° C | 70% | - | 0 mm | - | - | - |
| 1777858520 | 9.44° C | 51% | - | 0 mm | - | - | - |
| 1777857340 | 10° C | 49% | - | 0 mm | - | - | - |
| 1777856140 | 10.56° C | 47% | - | 0 mm | - | - | - |
| 1777853740 | 10.56° C | 45% | - | 0 mm | - | - | - |
| 1777851320 | 11.67° C | 42% | - | 0 mm | - | - | - |
| 1777850140 | 11.67° C | 42% | - | 0 mm | - | - | - |
| 1777849520 | 12.22° C | 42% | - | 0 mm | - | - | - |
| 1777846520 | 12.78° C | 38% | - | 0 mm | - | - | - |
| 1777844720 | 12.78° C | 38% | - | 0 mm | - | - | - |
| 1777842920 | 12.78° C | 40% | - | 0 mm | - | - | - |
| 1777837520 | 13.89° C | 41% | - | 0 mm | - | - | - |
| 1777828541 | 11.11° C | 47% | - | 0 mm | - | - | - |
| 1777815920 | 9.44° C | 55% | - | 0 mm | - | - | - |
| 1777814720 | 8.33° C | 56% | - | 0 mm | - | - | - |
| 1777812920 | 7.22° C | 66% | - | 0 mm | - | - | - |
| 1777811740 | 6.67° C | 71% | - | 0 mm | - | - | - |
| 1777809320 | 5.56° C | 76% | - | 0 mm | - | - | - |
| 1777808720 | 5.56° C | 77% | - | 0 mm | - | - | - |
| 1777806920 | 4.44° C | 82% | - | 0 mm | - | - | - |
| 1777794340 | 2.78° C | 99% | - | 0 mm | - | - | - |
| 1777791319 | 2.78° C | 99% | - | 0 mm | - | - | - |
* Rain latest hour (hover to see other rain measurements)
** Current wind speed in m/s (hover to see current wind gust speed)